sensor_id;sensor_type;location;lat;lon;timestamp;P1;durP1;ratioP1;P2;durP2;ratioP2
17380;SDS011;8808;52.478;13.378;2023-07-16T00:01:05;5.90;;;3.03;;
17380;SDS011;8808;52.478;13.378;2023-07-16T00:03:31;6.22;;;2.97;;
17380;SDS011;8808;52.478;13.378;2023-07-16T00:05:58;4.25;;;2.80;;
17380;SDS011;8808;52.478;13.378;2023-07-16T00:08:25;4.28;;;2.90;;
17380;SDS011;8808;52.478;13.378;2023-07-16T00:10:54;4.60;;;2.97;;
17380;SDS011;8808;52.478;13.378;2023-07-16T00:13:21;3.40;;;2.92;;
17380;SDS011;8808;52.478;13.378;2023-07-16T00:15:48;6.10;;;2.80;;
17380;SDS011;8808;52.478;13.378;2023-07-16T00:18:15;6.35;;;3.10;;
17380;SDS011;8808;52.478;13.378;2023-07-16T00:20:42;3.83;;;2.63;;
17380;SDS011;8808;52.478;13.378;2023-07-16T00:23:09;6.60;;;3.15;;
17380;SDS011;8808;52.478;13.378;2023-07-16T00:25:36;5.22;;;3.17;;
17380;SDS011;8808;52.478;13.378;2023-07-16T00:28:04;11.15;;;3.17;;
17380;SDS011;8808;52.478;13.378;2023-07-16T00:30:31;4.88;;;3.17;;
17380;SDS011;8808;52.478;13.378;2023-07-16T00:32:58;5.43;;;2.83;;
17380;SDS011;8808;52.478;13.378;2023-07-16T00:35:25;9.65;;;3.25;;
17380;SDS011;8808;52.478;13.378;2023-07-16T00:37:52;4.97;;;3.42;;
17380;SDS011;8808;52.478;13.378;2023-07-16T00:40:19;5.40;;;3.20;;
17380;SDS011;8808;52.478;13.378;2023-07-16T00:42:46;5.65;;;3.00;;
17380;SDS011;8808;52.478;13.378;2023-07-16T00:45:14;4.78;;;3.15;;
17380;SDS011;8808;52.478;13.378;2023-07-16T00:47:42;4.47;;;2.75;;
17380;SDS011;8808;52.478;13.378;2023-07-16T00:50:10;4.93;;;3.65;;
17380;SDS011;8808;52.478;13.378;2023-07-16T00:52:37;4.82;;;3.15;;
17380;SDS011;8808;52.478;13.378;2023-07-16T00:55:05;6.15;;;3.20;;
17380;SDS011;8808;52.478;13.378;2023-07-16T00:57:34;6.22;;;3.20;;
17380;SDS011;8808;52.478;13.378;2023-07-16T01:00:01;4.50;;;3.10;;
17380;SDS011;8808;52.478;13.378;2023-07-16T01:05:06;4.03;;;3.13;;
17380;SDS011;8808;52.478;13.378;2023-07-16T01:07:34;6.65;;;3.30;;
17380;SDS011;8808;52.478;13.378;2023-07-16T01:10:03;6.65;;;3.17;;
17380;SDS011;8808;52.478;13.378;2023-07-16T01:12:31;4.65;;;3.30;;
17380;SDS011;8808;52.478;13.378;2023-07-16T01:14:58;5.68;;;3.55;;
17380;SDS011;8808;52.478;13.378;2023-07-16T01:17:25;5.07;;;3.50;;
17380;SDS011;8808;52.478;13.378;2023-07-16T01:19:52;6.50;;;3.55;;
17380;SDS011;8808;52.478;13.378;2023-07-16T01:25:27;5.30;;;3.63;;
17380;SDS011;8808;52.478;13.378;2023-07-16T01:28:20;6.57;;;3.85;;
17380;SDS011;8808;52.478;13.378;2023-07-16T01:30:57;5.00;;;3.85;;
17380;SDS011;8808;52.478;13.378;2023-07-16T01:33:25;7.00;;;4.72;;
17380;SDS011;8808;52.478;13.378;2023-07-16T01:35:52;8.93;;;4.30;;
17380;SDS011;8808;52.478;13.378;2023-07-16T01:38:20;6.32;;;4.32;;
17380;SDS011;8808;52.478;13.378;2023-07-16T01:40:48;7.00;;;4.07;;
17380;SDS011;8808;52.478;13.378;2023-07-16T01:43:15;6.18;;;4.47;;
17380;SDS011;8808;52.478;13.378;2023-07-16T01:45:42;6.97;;;4.47;;
17380;SDS011;8808;52.478;13.378;2023-07-16T01:48:14;7.70;;;4.00;;
17380;SDS011;8808;52.478;13.378;2023-07-16T01:50:49;8.13;;;4.35;;
17380;SDS011;8808;52.478;13.378;2023-07-16T01:53:16;4.93;;;3.67;;
17380;SDS011;8808;52.478;13.378;2023-07-16T01:55:43;7.25;;;3.78;;
17380;SDS011;8808;52.478;13.378;2023-07-16T01:58:10;4.93;;;3.70;;
17380;SDS011;8808;52.478;13.378;2023-07-16T02:00:38;8.85;;;3.83;;
17380;SDS011;8808;52.478;13.378;2023-07-16T02:03:05;6.03;;;4.07;;
17380;SDS011;8808;52.478;13.378;2023-07-16T02:05:33;4.90;;;3.50;;
17380;SDS011;8808;52.478;13.378;2023-07-16T02:08:01;4.00;;;3.17;;
17380;SDS011;8808;52.478;13.378;2023-07-16T02:10:28;5.03;;;3.05;;
17380;SDS011;8808;52.478;13.378;2023-07-16T02:12:54;5.07;;;3.22;;
17380;SDS011;8808;52.478;13.378;2023-07-16T02:15:21;5.70;;;3.03;;
17380;SDS011;8808;52.478;13.378;2023-07-16T02:17:48;4.30;;;2.80;;
17380;SDS011;8808;52.478;13.378;2023-07-16T02:20:15;4.13;;;2.80;;
17380;SDS011;8808;52.478;13.378;2023-07-16T02:22:44;4.10;;;2.65;;
17380;SDS011;8808;52.478;13.378;2023-07-16T02:25:11;5.22;;;3.10;;
17380;SDS011;8808;52.478;13.378;2023-07-16T02:27:37;5.05;;;2.97;;
17380;SDS011;8808;52.478;13.378;2023-07-16T02:30:05;6.70;;;3.00;;
17380;SDS011;8808;52.478;13.378;2023-07-16T02:32:32;6.50;;;3.00;;
17380;SDS011;8808;52.478;13.378;2023-07-16T02:34:59;4.63;;;2.72;;
17380;SDS011;8808;52.478;13.378;2023-07-16T02:37:27;3.65;;;2.83;;
17380;SDS011;8808;52.478;13.378;2023-07-16T02:39:55;4.93;;;3.10;;
17380;SDS011;8808;52.478;13.378;2023-07-16T02:42:22;5.05;;;3.33;;
17380;SDS011;8808;52.478;13.378;2023-07-16T02:44:49;7.13;;;3.20;;
17380;SDS011;8808;52.478;13.378;2023-07-16T02:47:16;4.85;;;3.10;;
17380;SDS011;8808;52.478;13.378;2023-07-16T02:49:43;4.97;;;3.33;;
17380;SDS011;8808;52.478;13.378;2023-07-16T02:52:10;8.32;;;3.03;;
17380;SDS011;8808;52.478;13.378;2023-07-16T02:54:37;7.68;;;3.65;;
17380;SDS011;8808;52.478;13.378;2023-07-16T02:57:05;3.90;;;2.80;;
17380;SDS011;8808;52.478;13.378;2023-07-16T02:59:32;4.95;;;2.92;;
17380;SDS011;8808;52.478;13.378;2023-07-16T03:01:59;6.40;;;3.05;;
17380;SDS011;8808;52.478;13.378;2023-07-16T03:04:26;7.63;;;3.35;;
17380;SDS011;8808;52.478;13.378;2023-07-16T03:06:53;5.38;;;2.70;;
17380;SDS011;8808;52.478;13.378;2023-07-16T03:09:20;5.47;;;3.20;;
17380;SDS011;8808;52.478;13.378;2023-07-16T03:11:47;7.00;;;3.08;;
17380;SDS011;8808;52.478;13.378;2023-07-16T03:14:15;5.22;;;3.35;;
17380;SDS011;8808;52.478;13.378;2023-07-16T03:16:42;3.70;;;2.97;;
17380;SDS011;8808;52.478;13.378;2023-07-16T03:19:09;7.22;;;3.08;;
17380;SDS011;8808;52.478;13.378;2023-07-16T03:21:36;4.47;;;2.92;;
17380;SDS011;8808;52.478;13.378;2023-07-16T03:24:03;6.90;;;2.85;;
17380;SDS011;8808;52.478;13.378;2023-07-16T03:26:31;3.72;;;2.85;;
17380;SDS011;8808;52.478;13.378;2023-07-16T03:28:58;3.90;;;2.83;;
17380;SDS011;8808;52.478;13.378;2023-07-16T03:31:26;6.05;;;2.90;;
17380;SDS011;8808;52.478;13.378;2023-07-16T03:33:53;5.45;;;2.83;;
17380;SDS011;8808;52.478;13.378;2023-07-16T03:36:20;3.70;;;2.85;;
17380;SDS011;8808;52.478;13.378;2023-07-16T03:38:47;4.22;;;2.53;;
17380;SDS011;8808;52.478;13.378;2023-07-16T03:41:14;5.20;;;2.30;;
17380;SDS011;8808;52.478;13.378;2023-07-16T03:43:40;4.57;;;2.53;;
17380;SDS011;8808;52.478;13.378;2023-07-16T03:46:07;3.80;;;2.50;;
17380;SDS011;8808;52.478;13.378;2023-07-16T03:48:36;5.97;;;2.30;;
17380;SDS011;8808;52.478;13.378;2023-07-16T03:51:03;3.60;;;2.30;;
17380;SDS011;8808;52.478;13.378;2023-07-16T03:53:29;3.72;;;2.25;;
17380;SDS011;8808;52.478;13.378;2023-07-16T03:55:56;3.67;;;2.50;;
17380;SDS011;8808;52.478;13.378;2023-07-16T03:58:23;3.90;;;2.60;;
17380;SDS011;8808;52.478;13.378;2023-07-16T04:00:52;9.50;;;2.70;;
17380;SDS011;8808;52.478;13.378;2023-07-16T04:03:19;6.63;;;2.90;;
17380;SDS011;8808;52.478;13.378;2023-07-16T04:05:48;5.07;;;2.80;;
17380;SDS011;8808;52.478;13.378;2023-07-16T04:08:14;6.90;;;3.15;;
17380;SDS011;8808;52.478;13.378;2023-07-16T04:10:42;4.63;;;2.67;;
17380;SDS011;8808;52.478;13.378;2023-07-16T04:13:09;4.53;;;2.70;;
17380;SDS011;8808;52.478;13.378;2023-07-16T04:15:35;3.38;;;2.42;;
17380;SDS011;8808;52.478;13.378;2023-07-16T04:18:02;4.25;;;3.08;;
17380;SDS011;8808;52.478;13.378;2023-07-16T04:20:29;4.50;;;2.60;;
17380;SDS011;8808;52.478;13.378;2023-07-16T04:23:00;5.00;;;3.00;;
17380;SDS011;8808;52.478;13.378;2023-07-16T04:25:27;6.47;;;2.72;;
17380;SDS011;8808;52.478;13.378;2023-07-16T04:27:53;5.88;;;3.03;;
17380;SDS011;8808;52.478;13.378;2023-07-16T04:30:22;4.28;;;2.53;;
17380;SDS011;8808;52.478;13.378;2023-07-16T04:32:49;4.63;;;2.83;;
17380;SDS011;8808;52.478;13.378;2023-07-16T04:35:16;3.60;;;2.85;;
17380;SDS011;8808;52.478;13.378;2023-07-16T04:37:43;5.35;;;2.80;;
17380;SDS011;8808;52.478;13.378;2023-07-16T04:40:11;4.82;;;2.60;;
17380;SDS011;8808;52.478;13.378;2023-07-16T04:42:38;4.32;;;2.80;;
17380;SDS011;8808;52.478;13.378;2023-07-16T04:45:05;5.63;;;2.72;;
17380;SDS011;8808;52.478;13.378;2023-07-16T04:47:33;5.75;;;3.10;;
17380;SDS011;8808;52.478;13.378;2023-07-16T04:50:00;6.43;;;3.28;;
17380;SDS011;8808;52.478;13.378;2023-07-16T04:52:27;6.70;;;3.22;;
17380;SDS011;8808;52.478;13.378;2023-07-16T04:54:53;4.85;;;3.53;;
17380;SDS011;8808;52.478;13.378;2023-07-16T04:57:22;5.30;;;3.25;;
17380;SDS011;8808;52.478;13.378;2023-07-16T04:59:49;4.32;;;3.30;;
17380;SDS011;8808;52.478;13.378;2023-07-16T05:02:17;5.03;;;3.38;;
17380;SDS011;8808;52.478;13.378;2023-07-16T05:04:44;5.45;;;3.22;;
17380;SDS011;8808;52.478;13.378;2023-07-16T05:07:13;4.90;;;3.55;;
17380;SDS011;8808;52.478;13.378;2023-07-16T05:09:40;6.80;;;3.05;;
17380;SDS011;8808;52.478;13.378;2023-07-16T05:12:08;5.70;;;3.70;;
17380;SDS011;8808;52.478;13.378;2023-07-16T05:14:43;4.70;;;3.40;;
17380;SDS011;8808;52.478;13.378;2023-07-16T05:17:11;7.68;;;3.75;;
17380;SDS011;8808;52.478;13.378;2023-07-16T05:19:38;7.15;;;3.40;;
17380;SDS011;8808;52.478;13.378;2023-07-16T05:22:05;6.28;;;3.70;;
17380;SDS011;8808;52.478;13.378;2023-07-16T05:24:33;5.78;;;3.20;;
17380;SDS011;8808;52.478;13.378;2023-07-16T05:26:59;6.25;;;3.42;;
17380;SDS011;8808;52.478;13.378;2023-07-16T05:29:27;5.22;;;3.28;;
17380;SDS011;8808;52.478;13.378;2023-07-16T05:31:56;6.25;;;3.60;;
17380;SDS011;8808;52.478;13.378;2023-07-16T05:34:23;5.38;;;3.33;;
17380;SDS011;8808;52.478;13.378;2023-07-16T05:36:52;6.15;;;3.63;;
17380;SDS011;8808;52.478;13.378;2023-07-16T05:39:19;5.20;;;3.42;;
17380;SDS011;8808;52.478;13.378;2023-07-16T05:41:47;4.30;;;3.00;;
17380;SDS011;8808;52.478;13.378;2023-07-16T05:44:14;5.60;;;2.92;;
17380;SDS011;8808;52.478;13.378;2023-07-16T05:46:40;6.45;;;3.30;;
17380;SDS011;8808;52.478;13.378;2023-07-16T05:49:09;4.75;;;3.20;;
17380;SDS011;8808;52.478;13.378;2023-07-16T05:51:36;5.00;;;2.83;;
17380;SDS011;8808;52.478;13.378;2023-07-16T05:54:03;5.15;;;3.35;;
17380;SDS011;8808;52.478;13.378;2023-07-16T05:56:30;7.15;;;2.55;;
17380;SDS011;8808;52.478;13.378;2023-07-16T05:58:57;5.65;;;2.75;;
17380;SDS011;8808;52.478;13.378;2023-07-16T06:01:24;6.18;;;2.95;;
17380;SDS011;8808;52.478;13.378;2023-07-16T06:03:50;5.68;;;2.90;;
17380;SDS011;8808;52.478;13.378;2023-07-16T06:06:19;4.28;;;3.20;;
17380;SDS011;8808;52.478;13.378;2023-07-16T06:08:46;7.55;;;2.78;;
17380;SDS011;8808;52.478;13.378;2023-07-16T06:11:13;4.25;;;2.97;;
17380;SDS011;8808;52.478;13.378;2023-07-16T06:13:40;8.63;;;3.30;;
17380;SDS011;8808;52.478;13.378;2023-07-16T06:16:07;4.90;;;3.03;;
17380;SDS011;8808;52.478;13.378;2023-07-16T06:18:34;6.05;;;3.20;;
17380;SDS011;8808;52.478;13.378;2023-07-16T06:21:01;4.38;;;3.05;;
17380;SDS011;8808;52.478;13.378;2023-07-16T06:23:29;3.88;;;2.50;;
17380;SDS011;8808;52.478;13.378;2023-07-16T06:25:56;4.38;;;2.90;;
17380;SDS011;8808;52.478;13.378;2023-07-16T06:28:23;4.68;;;3.03;;
17380;SDS011;8808;52.478;13.378;2023-07-16T06:30:50;4.30;;;2.60;;
17380;SDS011;8808;52.478;13.378;2023-07-16T06:33:18;4.28;;;2.75;;
17380;SDS011;8808;52.478;13.378;2023-07-16T06:35:45;4.97;;;2.92;;
17380;SDS011;8808;52.478;13.378;2023-07-16T06:38:12;4.57;;;2.78;;
17380;SDS011;8808;52.478;13.378;2023-07-16T06:40:45;5.35;;;2.85;;
17380;SDS011;8808;52.478;13.378;2023-07-16T06:43:12;4.57;;;2.60;;
17380;SDS011;8808;52.478;13.378;2023-07-16T06:45:39;4.00;;;2.72;;
17380;SDS011;8808;52.478;13.378;2023-07-16T06:48:06;3.45;;;2.17;;
17380;SDS011;8808;52.478;13.378;2023-07-16T06:50:33;5.63;;;2.72;;
17380;SDS011;8808;52.478;13.378;2023-07-16T06:53:00;4.38;;;2.50;;
17380;SDS011;8808;52.478;13.378;2023-07-16T06:55:27;4.78;;;2.72;;
17380;SDS011;8808;52.478;13.378;2023-07-16T06:57:55;3.17;;;2.28;;
17380;SDS011;8808;52.478;13.378;2023-07-16T07:00:22;5.78;;;2.90;;
17380;SDS011;8808;52.478;13.378;2023-07-16T07:02:49;3.38;;;2.40;;
17380;SDS011;8808;52.478;13.378;2023-07-16T07:05:16;4.55;;;2.83;;
17380;SDS011;8808;52.478;13.378;2023-07-16T07:07:43;5.47;;;2.90;;
17380;SDS011;8808;52.478;13.378;2023-07-16T07:10:10;4.32;;;2.42;;
17380;SDS011;8808;52.478;13.378;2023-07-16T07:12:38;2.80;;;2.35;;
17380;SDS011;8808;52.478;13.378;2023-07-16T07:15:07;5.07;;;2.72;;
17380;SDS011;8808;52.478;13.378;2023-07-16T07:17:35;3.25;;;2.22;;
17380;SDS011;8808;52.478;13.378;2023-07-16T07:20:03;4.78;;;2.50;;
17380;SDS011;8808;52.478;13.378;2023-07-16T07:22:30;3.92;;;2.72;;
17380;SDS011;8808;52.478;13.378;2023-07-16T07:24:57;5.15;;;2.65;;
17380;SDS011;8808;52.478;13.378;2023-07-16T07:27:25;5.25;;;2.67;;
17380;SDS011;8808;52.478;13.378;2023-07-16T07:29:51;3.95;;;2.75;;
17380;SDS011;8808;52.478;13.378;2023-07-16T07:32:22;6.32;;;2.78;;
17380;SDS011;8808;52.478;13.378;2023-07-16T07:34:49;4.28;;;2.97;;
17380;SDS011;8808;52.478;13.378;2023-07-16T07:37:16;3.60;;;2.60;;
17380;SDS011;8808;52.478;13.378;2023-07-16T07:39:43;6.30;;;2.92;;
17380;SDS011;8808;52.478;13.378;2023-07-16T07:42:12;3.10;;;2.55;;
17380;SDS011;8808;52.478;13.378;2023-07-16T07:44:39;4.07;;;2.60;;
17380;SDS011;8808;52.478;13.378;2023-07-16T07:47:06;2.50;;;2.30;;
17380;SDS011;8808;52.478;13.378;2023-07-16T07:49:35;4.15;;;2.40;;
17380;SDS011;8808;52.478;13.378;2023-07-16T07:52:02;4.28;;;2.47;;
17380;SDS011;8808;52.478;13.378;2023-07-16T07:54:31;4.15;;;2.35;;
17380;SDS011;8808;52.478;13.378;2023-07-16T07:57:00;2.88;;;2.30;;
17380;SDS011;8808;52.478;13.378;2023-07-16T07:59:28;5.97;;;2.65;;
17380;SDS011;8808;52.478;13.378;2023-07-16T08:01:55;2.83;;;2.33;;
17380;SDS011;8808;52.478;13.378;2023-07-16T08:04:22;4.72;;;2.60;;
17380;SDS011;8808;52.478;13.378;2023-07-16T08:06:52;3.83;;;2.50;;
17380;SDS011;8808;52.478;13.378;2023-07-16T08:09:20;3.30;;;2.38;;
17380;SDS011;8808;52.478;13.378;2023-07-16T08:11:47;3.78;;;2.35;;
17380;SDS011;8808;52.478;13.378;2023-07-16T08:14:14;6.47;;;2.78;;
17380;SDS011;8808;52.478;13.378;2023-07-16T08:16:41;2.92;;;2.25;;
17380;SDS011;8808;52.478;13.378;2023-07-16T08:19:08;2.70;;;2.10;;
17380;SDS011;8808;52.478;13.378;2023-07-16T08:21:35;3.95;;;2.28;;
17380;SDS011;8808;52.478;13.378;2023-07-16T08:24:04;2.13;;;1.90;;
17380;SDS011;8808;52.478;13.378;2023-07-16T08:26:31;2.47;;;1.80;;
17380;SDS011;8808;52.478;13.378;2023-07-16T08:28:59;3.15;;;2.08;;
17380;SDS011;8808;52.478;13.378;2023-07-16T08:31:27;3.40;;;2.03;;
17380;SDS011;8808;52.478;13.378;2023-07-16T08:33:54;2.80;;;2.05;;
17380;SDS011;8808;52.478;13.378;2023-07-16T08:36:21;3.38;;;2.15;;
17380;SDS011;8808;52.478;13.378;2023-07-16T08:38:48;5.15;;;2.10;;
17380;SDS011;8808;52.478;13.378;2023-07-16T08:41:17;2.83;;;1.85;;
17380;SDS011;8808;52.478;13.378;2023-07-16T08:43:45;3.88;;;1.88;;
17380;SDS011;8808;52.478;13.378;2023-07-16T08:46:13;3.00;;;1.90;;
17380;SDS011;8808;52.478;13.378;2023-07-16T08:48:41;4.28;;;1.98;;
17380;SDS011;8808;52.478;13.378;2023-07-16T08:51:08;2.78;;;1.90;;
17380;SDS011;8808;52.478;13.378;2023-07-16T08:53:36;3.92;;;1.98;;
17380;SDS011;8808;52.478;13.378;2023-07-16T08:56:04;2.42;;;1.85;;
17380;SDS011;8808;52.478;13.378;2023-07-16T08:58:32;4.20;;;1.90;;
17380;SDS011;8808;52.478;13.378;2023-07-16T09:00:59;3.45;;;1.92;;
17380;SDS011;8808;52.478;13.378;2023-07-16T09:03:27;4.22;;;1.85;;
17380;SDS011;8808;52.478;13.378;2023-07-16T09:05:54;4.25;;;2.00;;
17380;SDS011;8808;52.478;13.378;2023-07-16T09:08:21;3.92;;;2.10;;
17380;SDS011;8808;52.478;13.378;2023-07-16T09:10:53;7.10;;;1.90;;
17380;SDS011;8808;52.478;13.378;2023-07-16T09:13:21;3.20;;;2.03;;
17380;SDS011;8808;52.478;13.378;2023-07-16T09:15:53;4.00;;;1.95;;
17380;SDS011;8808;52.478;13.378;2023-07-16T09:18:21;4.07;;;1.73;;
17380;SDS011;8808;52.478;13.378;2023-07-16T09:20:48;2.20;;;1.80;;
17380;SDS011;8808;52.478;13.378;2023-07-16T09:23:20;4.25;;;1.90;;
17380;SDS011;8808;52.478;13.378;2023-07-16T09:25:49;7.30;;;2.17;;
17380;SDS011;8808;52.478;13.378;2023-07-16T09:28:18;3.92;;;2.17;;
17380;SDS011;8808;52.478;13.378;2023-07-16T09:30:45;4.00;;;2.33;;
17380;SDS011;8808;52.478;13.378;2023-07-16T09:33:14;5.35;;;2.20;;
17380;SDS011;8808;52.478;13.378;2023-07-16T09:35:42;5.10;;;2.17;;
17380;SDS011;8808;52.478;13.378;2023-07-16T09:38:10;4.00;;;2.10;;
17380;SDS011;8808;52.478;13.378;2023-07-16T09:40:37;4.63;;;1.80;;
17380;SDS011;8808;52.478;13.378;2023-07-16T09:43:07;2.38;;;1.83;;
17380;SDS011;8808;52.478;13.378;2023-07-16T09:45:35;4.50;;;1.77;;
17380;SDS011;8808;52.478;13.378;2023-07-16T09:48:02;3.17;;;2.08;;
17380;SDS011;8808;52.478;13.378;2023-07-16T09:50:32;3.72;;;1.70;;
17380;SDS011;8808;52.478;13.378;2023-07-16T09:52:59;3.55;;;2.05;;
17380;SDS011;8808;52.478;13.378;2023-07-16T09:55:28;2.97;;;1.70;;
17380;SDS011;8808;52.478;13.378;2023-07-16T09:57:59;4.97;;;2.10;;
17380;SDS011;8808;52.478;13.378;2023-07-16T10:00:28;2.38;;;1.70;;
17380;SDS011;8808;52.478;13.378;2023-07-16T10:02:56;4.63;;;2.03;;
17380;SDS011;8808;52.478;13.378;2023-07-16T10:05:25;4.15;;;2.13;;
17380;SDS011;8808;52.478;13.378;2023-07-16T10:07:54;3.28;;;1.80;;
17380;SDS011;8808;52.478;13.378;2023-07-16T10:10:25;3.38;;;2.03;;
17380;SDS011;8808;52.478;13.378;2023-07-16T10:12:56;6.03;;;3.65;;
17380;SDS011;8808;52.478;13.378;2023-07-16T10:15:24;3.30;;;1.67;;
17380;SDS011;8808;52.478;13.378;2023-07-16T10:17:53;3.97;;;1.85;;
17380;SDS011;8808;52.478;13.378;2023-07-16T10:20:27;2.13;;;1.70;;
17380;SDS011;8808;52.478;13.378;2023-07-16T10:22:57;1.98;;;1.70;;
17380;SDS011;8808;52.478;13.378;2023-07-16T10:25:25;3.58;;;1.95;;
17380;SDS011;8808;52.478;13.378;2023-07-16T10:27:53;3.35;;;1.75;;
17380;SDS011;8808;52.478;13.378;2023-07-16T10:30:20;4.05;;;2.10;;
17380;SDS011;8808;52.478;13.378;2023-07-16T10:32:50;4.95;;;1.95;;
17380;SDS011;8808;52.478;13.378;2023-07-16T10:35:17;5.75;;;1.85;;
17380;SDS011;8808;52.478;13.378;2023-07-16T10:37:44;4.30;;;1.80;;
17380;SDS011;8808;52.478;13.378;2023-07-16T10:40:13;3.70;;;1.60;;
17380;SDS011;8808;52.478;13.378;2023-07-16T10:42:40;3.20;;;1.88;;
17380;SDS011;8808;52.478;13.378;2023-07-16T10:45:09;2.97;;;1.85;;
17380;SDS011;8808;52.478;13.378;2023-07-16T10:47:37;5.35;;;2.00;;
17380;SDS011;8808;52.478;13.378;2023-07-16T10:50:06;3.28;;;1.90;;
17380;SDS011;8808;52.478;13.378;2023-07-16T10:52:34;4.60;;;1.98;;
17380;SDS011;8808;52.478;13.378;2023-07-16T10:55:03;6.03;;;1.90;;
17380;SDS011;8808;52.478;13.378;2023-07-16T10:57:31;2.60;;;1.80;;
17380;SDS011;8808;52.478;13.378;2023-07-16T10:59:58;4.75;;;1.95;;
17380;SDS011;8808;52.478;13.378;2023-07-16T11:02:26;2.13;;;1.92;;
17380;SDS011;8808;52.478;13.378;2023-07-16T11:04:53;2.83;;;1.90;;
17380;SDS011;8808;52.478;13.378;2023-07-16T11:07:22;4.13;;;2.20;;
17380;SDS011;8808;52.478;13.378;2023-07-16T11:09:50;4.55;;;2.22;;
17380;SDS011;8808;52.478;13.378;2023-07-16T11:12:18;3.83;;;1.90;;
17380;SDS011;8808;52.478;13.378;2023-07-16T11:14:48;2.55;;;1.92;;
17380;SDS011;8808;52.478;13.378;2023-07-16T11:17:17;3.35;;;2.20;;
17380;SDS011;8808;52.478;13.378;2023-07-16T11:19:44;3.80;;;2.20;;
17380;SDS011;8808;52.478;13.378;2023-07-16T11:22:13;4.18;;;2.15;;
17380;SDS011;8808;52.478;13.378;2023-07-16T11:24:40;5.35;;;2.30;;
17380;SDS011;8808;52.478;13.378;2023-07-16T11:27:12;6.90;;;2.38;;
17380;SDS011;8808;52.478;13.378;2023-07-16T11:29:40;5.32;;;1.67;;
17380;SDS011;8808;52.478;13.378;2023-07-16T11:32:12;5.07;;;2.42;;
17380;SDS011;8808;52.478;13.378;2023-07-16T11:34:51;3.67;;;2.22;;
17380;SDS011;8808;52.478;13.378;2023-07-16T11:37:19;5.38;;;2.13;;
17380;SDS011;8808;52.478;13.378;2023-07-16T11:39:47;3.08;;;2.20;;
17380;SDS011;8808;52.478;13.378;2023-07-16T11:42:14;5.28;;;2.15;;
17380;SDS011;8808;52.478;13.378;2023-07-16T11:44:49;3.28;;;2.28;;
17380;SDS011;8808;52.478;13.378;2023-07-16T11:47:17;6.18;;;2.10;;
17380;SDS011;8808;52.478;13.378;2023-07-16T11:49:44;2.70;;;1.50;;
17380;SDS011;8808;52.478;13.378;2023-07-16T11:52:11;2.70;;;1.80;;
17380;SDS011;8808;52.478;13.378;2023-07-16T11:54:38;5.20;;;1.90;;
17380;SDS011;8808;52.478;13.378;2023-07-16T11:57:05;3.30;;;1.80;;
17380;SDS011;8808;52.478;13.378;2023-07-16T11:59:32;2.40;;;1.63;;
17380;SDS011;8808;52.478;13.378;2023-07-16T12:01:59;3.50;;;1.70;;
17380;SDS011;8808;52.478;13.378;2023-07-16T12:04:28;2.97;;;1.50;;
17380;SDS011;8808;52.478;13.378;2023-07-16T12:06:55;5.30;;;2.15;;
17380;SDS011;8808;52.478;13.378;2023-07-16T12:09:22;4.47;;;1.67;;
17380;SDS011;8808;52.478;13.378;2023-07-16T12:11:49;4.10;;;1.50;;
17380;SDS011;8808;52.478;13.378;2023-07-16T12:14:16;4.75;;;1.60;;
17380;SDS011;8808;52.478;13.378;2023-07-16T12:16:43;2.88;;;1.45;;
17380;SDS011;8808;52.478;13.378;2023-07-16T12:19:10;3.15;;;1.50;;
17380;SDS011;8808;52.478;13.378;2023-07-16T12:21:38;4.45;;;1.63;;
17380;SDS011;8808;52.478;13.378;2023-07-16T12:24:05;3.42;;;1.35;;
17380;SDS011;8808;52.478;13.378;2023-07-16T12:26:32;3.22;;;1.60;;
17380;SDS011;8808;52.478;13.378;2023-07-16T12:28:59;4.55;;;1.58;;
17380;SDS011;8808;52.478;13.378;2023-07-16T12:31:29;3.55;;;1.70;;
17380;SDS011;8808;52.478;13.378;2023-07-16T12:33:56;4.03;;;1.60;;
17380;SDS011;8808;52.478;13.378;2023-07-16T12:36:24;2.08;;;1.50;;
17380;SDS011;8808;52.478;13.378;2023-07-16T12:38:52;5.38;;;1.73;;
17380;SDS011;8808;52.478;13.378;2023-07-16T12:41:19;3.30;;;1.70;;
17380;SDS011;8808;52.478;13.378;2023-07-16T12:43:46;6.10;;;1.70;;
17380;SDS011;8808;52.478;13.378;2023-07-16T12:46:13;4.90;;;1.55;;
17380;SDS011;8808;52.478;13.378;2023-07-16T12:48:40;4.90;;;1.40;;
17380;SDS011;8808;52.478;13.378;2023-07-16T12:51:08;5.32;;;1.60;;
17380;SDS011;8808;52.478;13.378;2023-07-16T12:53:35;3.90;;;1.50;;
17380;SDS011;8808;52.478;13.378;2023-07-16T12:56:03;2.92;;;1.40;;
17380;SDS011;8808;52.478;13.378;2023-07-16T12:58:30;2.35;;;1.77;;
17380;SDS011;8808;52.478;13.378;2023-07-16T13:00:57;2.92;;;1.20;;
17380;SDS011;8808;52.478;13.378;2023-07-16T13:03:24;2.03;;;1.23;;
17380;SDS011;8808;52.478;13.378;2023-07-16T13:05:51;3.63;;;1.50;;
17380;SDS011;8808;52.478;13.378;2023-07-16T13:08:18;2.72;;;1.75;;
17380;SDS011;8808;52.478;13.378;2023-07-16T13:10:45;6.50;;;1.45;;
17380;SDS011;8808;52.478;13.378;2023-07-16T13:13:13;2.47;;;1.50;;
17380;SDS011;8808;52.478;13.378;2023-07-16T13:15:40;4.18;;;1.50;;
17380;SDS011;8808;52.478;13.378;2023-07-16T13:18:09;3.72;;;1.52;;
17380;SDS011;8808;52.478;13.378;2023-07-16T13:20:37;4.00;;;1.50;;
17380;SDS011;8808;52.478;13.378;2023-07-16T13:23:04;5.90;;;1.52;;
17380;SDS011;8808;52.478;13.378;2023-07-16T13:25:31;2.38;;;1.45;;
17380;SDS011;8808;52.478;13.378;2023-07-16T13:27:58;2.78;;;1.35;;
17380;SDS011;8808;52.478;13.378;2023-07-16T13:30:26;1.88;;;1.42;;
17380;SDS011;8808;52.478;13.378;2023-07-16T13:32:53;5.00;;;1.40;;
17380;SDS011;8808;52.478;13.378;2023-07-16T13:35:21;6.03;;;1.70;;
17380;SDS011;8808;52.478;13.378;2023-07-16T13:37:48;4.47;;;1.77;;
17380;SDS011;8808;52.478;13.378;2023-07-16T13:40:15;5.95;;;1.80;;
17380;SDS011;8808;52.478;13.378;2023-07-16T13:42:44;11.73;;;1.90;;
17380;SDS011;8808;52.478;13.378;2023-07-16T13:45:11;7.38;;;1.50;;
17380;SDS011;8808;52.478;13.378;2023-07-16T13:47:40;3.17;;;1.60;;
17380;SDS011;8808;52.478;13.378;2023-07-16T13:50:07;4.63;;;1.70;;
17380;SDS011;8808;52.478;13.378;2023-07-16T13:52:34;5.75;;;1.70;;
17380;SDS011;8808;52.478;13.378;2023-07-16T13:55:02;5.13;;;1.60;;
17380;SDS011;8808;52.478;13.378;2023-07-16T13:57:29;8.07;;;1.67;;
17380;SDS011;8808;52.478;13.378;2023-07-16T13:59:56;3.55;;;1.50;;
17380;SDS011;8808;52.478;13.378;2023-07-16T14:02:23;9.35;;;1.65;;
17380;SDS011;8808;52.478;13.378;2023-07-16T14:04:52;3.63;;;1.42;;
17380;SDS011;8808;52.478;13.378;2023-07-16T14:07:19;3.35;;;1.35;;
17380;SDS011;8808;52.478;13.378;2023-07-16T14:09:46;4.43;;;1.40;;
17380;SDS011;8808;52.478;13.378;2023-07-16T14:12:13;3.55;;;1.40;;
17380;SDS011;8808;52.478;13.378;2023-07-16T14:14:40;5.40;;;1.50;;
17380;SDS011;8808;52.478;13.378;2023-07-16T14:17:06;6.28;;;1.55;;
17380;SDS011;8808;52.478;13.378;2023-07-16T14:19:33;3.15;;;1.40;;
17380;SDS011;8808;52.478;13.378;2023-07-16T14:22:02;4.57;;;1.27;;
17380;SDS011;8808;52.478;13.378;2023-07-16T14:24:29;3.35;;;1.42;;
17380;SDS011;8808;52.478;13.378;2023-07-16T14:26:57;8.90;;;1.50;;
17380;SDS011;8808;52.478;13.378;2023-07-16T14:29:25;3.28;;;1.50;;
17380;SDS011;8808;52.478;13.378;2023-07-16T14:31:52;3.28;;;1.20;;
17380;SDS011;8808;52.478;13.378;2023-07-16T14:34:19;2.70;;;1.40;;
17380;SDS011;8808;52.478;13.378;2023-07-16T14:36:46;2.47;;;1.40;;
17380;SDS011;8808;52.478;13.378;2023-07-16T14:39:14;3.28;;;1.30;;
17380;SDS011;8808;52.478;13.378;2023-07-16T14:41:41;3.05;;;1.50;;
17380;SDS011;8808;52.478;13.378;2023-07-16T14:44:08;3.30;;;1.60;;
17380;SDS011;8808;52.478;13.378;2023-07-16T14:46:35;4.22;;;1.25;;
17380;SDS011;8808;52.478;13.378;2023-07-16T14:49:03;6.10;;;1.60;;
17380;SDS011;8808;52.478;13.378;2023-07-16T14:51:29;4.18;;;1.40;;
17380;SDS011;8808;52.478;13.378;2023-07-16T14:53:56;4.88;;;1.40;;
17380;SDS011;8808;52.478;13.378;2023-07-16T14:56:25;5.38;;;1.50;;